Sitka, AK

10:00 PM AKDT on August 01, 2014 (GMT -0800)
Sitka Rocky Gutierrez (PASI) Elev 20 ft | 57.05 °N, 135.36 °W | Change Station

Current weather conditions updated 7 minutes ago

Clear
Clear
60 °F
Feels Like 60 °F
N
9
Wind Variable Wind from NW

Tomorrow is forecast to be nearly the same temperature as today.

Today
High -- | Low -- °F
--% Chance of Precip.
Yesterday
High -- | Low -- °F
Precip. -- in
5:00 AM 9:13 PM
Waxing Crescent, 32% visible
Pressure 30.17 in
Visibility 10.0 miles
Clouds Clear
Dew Point 55 °F
Humidity 83%
Rainfall 0.00 in
Snow Depth Not available.
UV 0 out of 12
Pollen Not available.
Air Quality Not available.
Flu Activity Not available.
METAR PASI 020553Z 32008KT 10SM CLR 16/13 A3016 RMK AO2 SLP214 T01560128 10206 20156 56005

More Conditions Fewer Conditions

Pressure 30.17 in
Visibility 10.0 miles
Clouds Clear
Dew Point 55 °F
Humidity 83%
Rainfall 0.00 in
Snow Depth Not available.
UV 0 out of 12
Pollen Not available.
Air Quality Not available.
Flu Activity Not available.
METAR PASI 020553Z 32008KT 10SM CLR 16/13 A3016 RMK AO2 SLP214 T01560128 10206 20156 56005

More Conditions Fewer Conditions

10-Day Weather Forecast

Almanac

Astronomy

Aug. 01, 2014 Rise Set
Actual Time 5:00 AM AKDT 9:13 PM AKDT
Civil Twilight 4:09 AM AKDT 10:04 PM AKDT
Nautical Twilight 2:49 AM AKDT 11:21 PM AKDT
Astronomical Twilight 1:40 AM AKDT 12:35 AM AKDT
Moon 11:49 AM AKDT (8/1) 10:40 PM AKDT (8/1)
Length of Visible Light 17h 54m
Length of Day
16h 13m
Tomorrow will be 4m 8s shorter.
Waxing Crescent, 32% of the Moon is Illuminated
Aug 2
Waxing Crescent
Aug 3
First Quarter
Aug 10
Full
Aug 17
Last Quarter
Aug 25
New

Yesterday's Extremes

State Highs State Lows

Community

WunderPhotos

Upload Photos

1,739,830 photos uploaded!

Nearby

Snow Depth

Station Depth Elevation
Long Lake 0 in 820 ft
Moraine 0 in 2100 ft
Grandview 3 in 1100 ft
Grouse Creek Divide 0 in 700 ft
Turnagain Pass 0 in 1880 ft

Earthquake Activity

City Distance Mag. Time & Date
No recent earthquake activity has been reported nearby.
Minimum magnitude displayed is 2.5.

Coastal Water Temperatures

Place Temperature
No Stations Reporting

Nearby Weather Stations

Station Location Temp. Dew Point Humidity Wind Precip. Elev Updated Type
HADS TAKATZ C NR BARANOF AK , Sitka, AK 55 °F - - North  at  - 0.00 in / hr 227 ft 9:00 PM AKDT MADIS

Show More Stations Show Fewer Stations